createdAt,value
2023-11-15T00:00:47.755Z,100880.78
2023-11-15T00:03:33.419Z,100878.22
2023-11-15T00:06:19.454Z,100885.03
2023-11-15T00:09:07.222Z,100887.63
2023-11-15T00:11:52.942Z,100888.56
2023-11-15T00:14:38.809Z,100892.84
2023-11-15T00:17:24.416Z,100890.25
2023-11-15T00:20:13.601Z,100896.38
2023-11-15T00:22:59.335Z,100896.28
2023-11-15T00:25:46.463Z,100902.34
2023-11-15T00:28:32.314Z,100894.53
2023-11-15T00:31:18.167Z,100893.69
2023-11-15T00:34:06.467Z,100904.06
2023-11-15T00:36:51.860Z,100897.13
2023-11-15T00:39:37.352Z,100903.97
2023-11-15T00:42:22.953Z,100909.97
2023-11-15T00:45:10.052Z,100909.09
2023-11-15T00:47:55.930Z,100907.38
2023-11-15T00:50:41.728Z,100913.38
2023-11-15T00:53:27.290Z,100909.97
2023-11-15T00:56:12.665Z,100921.19
2023-11-15T00:58:58.167Z,100922.03
2023-11-15T01:01:45.033Z,100922.09
2023-11-15T01:04:32.077Z,100909.13
2023-11-15T01:07:17.788Z,100917.75
2023-11-15T01:10:03.064Z,100919.41
2023-11-15T01:12:48.581Z,100921.06
2023-11-15T01:15:33.986Z,100937.44
2023-11-15T01:18:21.228Z,100933.88
2023-11-15T01:21:13.274Z,100945.06
2023-11-15T01:23:59.022Z,100945.16
2023-11-15T01:26:44.516Z,100943.38
2023-11-15T01:29:29.979Z,100944.19
2023-11-15T01:32:15.541Z,100949.25
2023-11-15T01:35:01.096Z,100950.09
2023-11-15T01:37:49.242Z,100944.91
2023-11-15T01:40:39.333Z,100955.38
2023-11-15T01:43:25.160Z,100946.72
2023-11-15T01:46:13.692Z,100945.81
2023-11-15T01:49:00.969Z,100957.81
2023-11-15T01:51:48.132Z,100954.31
2023-11-15T01:54:34.073Z,100959.44
2023-11-15T01:57:19.970Z,100968.09
2023-11-15T02:00:08.420Z,100959.44
2023-11-15T02:02:58.265Z,100964.63
2023-11-15T02:05:44.059Z,100964.53
2023-11-15T02:08:30.136Z,100962.69
2023-11-15T02:11:15.585Z,100968.69
2023-11-15T02:14:01.102Z,100978.16
2023-11-15T02:16:46.607Z,100962.63
2023-11-15T02:19:32.434Z,100976.38
2023-11-15T02:22:19.327Z,100969.41
2023-11-15T02:25:06.709Z,100977.97
2023-11-15T02:27:52.399Z,100982.22
2023-11-15T02:30:37.912Z,100981.31
2023-11-15T02:33:23.440Z,100979.59
2023-11-15T02:36:10.057Z,100983.91
2023-11-15T02:38:55.869Z,100989.91
2023-11-15T02:41:42.228Z,100988.16
2023-11-15T02:44:28.018Z,101000.25
2023-11-15T02:47:13.319Z,101000.19
2023-11-15T02:49:58.733Z,101004.47
2023-11-15T02:52:44.140Z,101009.63
2023-11-15T02:55:29.518Z,101004.47
2023-11-15T02:58:15.361Z,101011.41
2023-11-15T03:01:01.339Z,101006.16
2023-11-15T03:03:46.923Z,101015.66
2023-11-15T03:06:32.853Z,101012.34
2023-11-15T03:09:18.273Z,101018.47
2023-11-15T03:12:04.580Z,101025.53
2023-11-15T03:14:50.303Z,101014.25
2023-11-15T03:17:35.905Z,101025.53
2023-11-15T03:20:21.601Z,101027.41
2023-11-15T03:23:07.046Z,101021.44
2023-11-15T03:25:52.450Z,101017.06
2023-11-15T03:28:37.952Z,101013.63
2023-11-15T03:31:23.487Z,101013.75
2023-11-15T03:34:09.869Z,101010.41
2023-11-15T03:36:55.431Z,101012.22
2023-11-15T03:39:41.147Z,101011.44
2023-11-15T03:42:26.873Z,101007.94
2023-11-15T03:45:12.399Z,101012.19
2023-11-15T03:47:58.152Z,101018.25
2023-11-15T03:50:43.778Z,101020.00
2023-11-15T03:53:31.612Z,101033.81
2023-11-15T03:56:17.531Z,101035.59
2023-11-15T03:59:03.002Z,101028.59
2023-11-15T04:01:55.407Z,101037.19
2023-11-15T04:04:44.767Z,101031.09
2023-11-15T04:07:30.750Z,101030.34
2023-11-15T04:10:16.189Z,101032.84
2023-11-15T04:13:01.736Z,101038.88
2023-11-15T04:15:47.556Z,101024.13
2023-11-15T04:18:33.248Z,101039.59
2023-11-15T04:21:19.216Z,101034.38
2023-11-15T04:24:04.722Z,101041.25
2023-11-15T04:26:50.591Z,101044.56
2023-11-15T04:29:38.683Z,101053.13
2023-11-15T04:32:24.049Z,101053.00
2023-11-15T04:35:09.707Z,101049.50
2023-11-15T04:37:55.377Z,101052.84
2023-11-15T04:40:40.977Z,101058.81
2023-11-15T04:43:27.264Z,101066.53
2023-11-15T04:46:12.875Z,101082.91
2023-11-15T04:48:58.550Z,101087.94
2023-11-15T04:51:43.998Z,101096.44
2023-11-15T04:54:29.718Z,101097.22
2023-11-15T04:57:17.336Z,101094.53
2023-11-15T05:00:05.752Z,101101.41
2023-11-15T05:02:51.496Z,101091.03
2023-11-15T05:05:37.877Z,101104.78
2023-11-15T05:08:23.846Z,101110.78
2023-11-15T05:11:09.288Z,101109.09
2023-11-15T05:13:54.842Z,101107.22
2023-11-15T05:16:40.371Z,101113.97
2023-11-15T05:19:26.040Z,101120.03
2023-11-15T05:22:11.392Z,101112.38
2023-11-15T05:24:57.088Z,101117.53
2023-11-15T05:27:42.766Z,101124.66
2023-11-15T05:30:28.234Z,101116.81
2023-11-15T05:33:13.780Z,101133.94
2023-11-15T05:35:59.255Z,101141.63
2023-11-15T05:38:45.193Z,101150.19
2023-11-15T05:41:30.630Z,101164.94
2023-11-15T05:44:16.443Z,101164.84
2023-11-15T05:47:02.087Z,101170.72
2023-11-15T05:49:48.261Z,101176.63
2023-11-15T05:52:34.072Z,101187.00
2023-11-15T05:55:19.752Z,101179.97
2023-11-15T05:58:06.012Z,101187.84
2023-11-15T06:00:51.754Z,101198.31
2023-11-15T06:03:37.852Z,101198.28
2023-11-15T06:06:23.789Z,101195.53
2023-11-15T06:09:14.640Z,101195.50
2023-11-15T06:12:00.515Z,101190.28
2023-11-15T06:14:45.718Z,101188.56
2023-11-15T06:17:31.501Z,101188.41
2023-11-15T06:20:17.210Z,101193.53
2023-11-15T06:23:02.495Z,101199.63
2023-11-15T06:25:50.019Z,101197.06
2023-11-15T06:28:36.126Z,101195.31
2023-11-15T06:31:22.453Z,101210.84
2023-11-15T06:34:10.336Z,101206.53
2023-11-15T06:36:57.197Z,101219.50
2023-11-15T06:39:43.618Z,101210.91
2023-11-15T06:42:29.264Z,101213.47
2023-11-15T06:45:14.891Z,101225.53
2023-11-15T06:48:01.876Z,101217.72
2023-11-15T06:50:47.812Z,101219.41
2023-11-15T06:53:33.917Z,101221.09
2023-11-15T06:56:19.590Z,101229.69
2023-11-15T06:59:05.435Z,101225.38
2023-11-15T07:01:52.454Z,101240.03
2023-11-15T07:04:38.058Z,101236.63
2023-11-15T07:07:23.785Z,101249.69
2023-11-15T07:10:09.889Z,101245.38
2023-11-15T07:12:56.640Z,101259.13
2023-11-15T07:15:42.327Z,101259.06
2023-11-15T07:18:29.084Z,101257.88
2023-11-15T07:21:15.086Z,101268.13
2023-11-15T07:24:00.793Z,101270.72
2023-11-15T07:26:46.789Z,101275.72
2023-11-15T07:29:34.542Z,101281.75
2023-11-15T07:32:19.872Z,101278.97
2023-11-15T07:35:06.667Z,101296.16
2023-11-15T07:37:52.840Z,101296.16
2023-11-15T07:40:38.851Z,101291.03
2023-11-15T07:43:24.710Z,101296.19
2023-11-15T07:46:11.217Z,101308.00
2023-11-15T07:48:58.188Z,101312.31
2023-11-15T07:51:43.743Z,101313.19
2023-11-15T07:54:29.188Z,101319.09
2023-11-15T07:57:14.644Z,101314.81
2023-11-15T08:00:00.652Z,101308.84
2023-11-15T08:02:46.234Z,101326.97
2023-11-15T08:05:31.965Z,101326.91
2023-11-15T08:08:17.867Z,101323.41
2023-11-15T08:11:05.186Z,101327.72
2023-11-15T08:13:52.477Z,101339.03
2023-11-15T08:16:39.383Z,101337.38
2023-11-15T08:19:25.379Z,101336.59
2023-11-15T08:22:10.866Z,101335.00
2023-11-15T08:24:56.198Z,101345.34
2023-11-15T08:27:43.198Z,101342.00
2023-11-15T08:30:28.701Z,101346.34
2023-11-15T08:33:17.987Z,101352.50
2023-11-15T08:36:04.039Z,101352.53
2023-11-15T08:38:51.338Z,101348.38
2023-11-15T08:41:37.010Z,101367.50
2023-11-15T08:44:22.556Z,101368.50
2023-11-15T08:47:08.128Z,101379.88
2023-11-15T08:49:54.978Z,101379.97
2023-11-15T08:52:43.343Z,101376.66
2023-11-15T08:55:29.911Z,101381.81
2023-11-15T08:58:15.666Z,101382.00
2023-11-15T09:01:03.487Z,101383.06
2023-11-15T09:03:49.628Z,101366.84
2023-11-15T09:06:38.788Z,101372.09
2023-11-15T09:09:25.752Z,101370.59
2023-11-15T09:12:11.693Z,101364.56
2023-11-15T09:15:01.099Z,101364.75
2023-11-15T09:17:51.776Z,101367.44
2023-11-15T09:20:37.282Z,101378.78
2023-11-15T09:23:29.006Z,101383.25
2023-11-15T09:26:20.303Z,101391.06
2023-11-15T09:29:06.360Z,101395.53
2023-11-15T09:31:53.354Z,101402.53
2023-11-15T09:34:40.084Z,101395.66
2023-11-15T09:37:25.472Z,101396.59
2023-11-15T09:40:15.068Z,101396.63
2023-11-15T09:43:01.332Z,101395.84
2023-11-15T09:45:49.111Z,101393.44
2023-11-15T09:48:35.011Z,101381.59
2023-11-15T09:51:25.985Z,101385.22
2023-11-15T09:54:18.319Z,101393.22
2023-11-15T09:57:04.457Z,101382.09
2023-11-15T09:59:57.473Z,101375.25
2023-11-15T10:02:54.318Z,101386.63
2023-11-15T10:05:44.117Z,101386.81
2023-11-15T10:08:29.883Z,101381.75
2023-11-15T10:11:17.269Z,101394.94
2023-11-15T10:14:16.893Z,101391.72
2023-11-15T10:17:04.659Z,101388.44
2023-11-15T10:19:51.052Z,101376.56
2023-11-15T10:22:45.395Z,101380.22
2023-11-15T10:25:32.868Z,101370.00
2023-11-15T10:28:22.394Z,101379.59
2023-11-15T10:31:14.602Z,101370.25
2023-11-15T10:34:00.386Z,101367.78
2023-11-15T10:37:02.450Z,101368.81
2023-11-15T10:39:49.344Z,101370.66
2023-11-15T10:42:37.255Z,101370.66
2023-11-15T10:45:29.128Z,101368.19
2023-11-15T10:48:22.184Z,101374.28
2023-11-15T10:51:15.890Z,101372.66
2023-11-15T10:54:02.455Z,101374.47
2023-11-15T10:56:52.309Z,101375.44
2023-11-15T10:59:42.083Z,101396.31
2023-11-15T11:02:33.038Z,101389.44
2023-11-15T11:05:46.205Z,101392.13
2023-11-15T11:08:35.848Z,101398.34
2023-11-15T11:11:41.993Z,101408.00
2023-11-15T11:14:31.590Z,101401.19
2023-11-15T11:17:39.156Z,101404.75
2023-11-15T11:20:30.316Z,101406.53
2023-11-15T11:23:20.944Z,101402.31
2023-11-15T11:26:38.402Z,101407.59
2023-11-15T11:29:26.080Z,101413.72
2023-11-15T11:32:21.685Z,101401.66
2023-11-15T11:35:14.505Z,101406.13
2023-11-15T11:38:01.550Z,101406.19
2023-11-15T11:40:48.342Z,101398.41
2023-11-15T11:43:34.083Z,101404.56
2023-11-15T11:46:21.994Z,101398.59
2023-11-15T11:49:09.503Z,101403.03
2023-11-15T11:51:56.428Z,101403.94
2023-11-15T11:54:42.018Z,101401.41
2023-11-15T11:57:27.612Z,101403.25
2023-11-15T12:00:17.181Z,101392.06
2023-11-15T12:03:16.433Z,101398.19
2023-11-15T12:06:11.359Z,101393.09
2023-11-15T12:08:57.170Z,101398.31
2023-11-15T12:11:46.145Z,101411.31
2023-11-15T12:14:31.682Z,101402.72
2023-11-15T12:17:19.669Z,101401.88
2023-11-15T12:20:05.970Z,101408.00
2023-11-15T12:22:51.734Z,101404.63
2023-11-15T12:25:53.753Z,101401.22
2023-11-15T12:28:39.303Z,101395.19
2023-11-15T12:31:25.081Z,101397.00
2023-11-15T12:34:12.158Z,101397.97
2023-11-15T12:36:58.765Z,101384.13
2023-11-15T12:39:44.280Z,101385.13
2023-11-15T12:42:29.739Z,101388.53
2023-11-15T12:45:31.188Z,101390.31
2023-11-15T12:48:17.112Z,101384.25
2023-11-15T12:51:05.126Z,101401.69
2023-11-15T12:53:50.643Z,101392.22
2023-11-15T12:56:36.349Z,101394.84
2023-11-15T12:59:37.768Z,101395.69
2023-11-15T13:02:32.017Z,101393.06
2023-11-15T13:05:26.061Z,101401.72
2023-11-15T13:08:11.632Z,101406.94
2023-11-15T13:10:57.648Z,101400.88
2023-11-15T13:13:47.002Z,101406.97
2023-11-15T13:16:34.179Z,101417.34
2023-11-15T13:19:19.610Z,101406.09
2023-11-15T13:22:04.993Z,101424.28
2023-11-15T13:24:51.134Z,101411.25
2023-11-15T13:27:36.741Z,101419.88
2023-11-15T13:30:22.076Z,101412.06
2023-11-15T13:33:07.810Z,101413.78
2023-11-15T13:35:54.097Z,101412.94
2023-11-15T13:38:42.158Z,101407.78
2023-11-15T13:41:28.837Z,101413.00
2023-11-15T13:44:14.674Z,101411.25
2023-11-15T13:47:00.665Z,101420.72
2023-11-15T13:49:48.039Z,101422.41
2023-11-15T13:52:33.448Z,101420.63
2023-11-15T13:55:18.950Z,101420.59
2023-11-15T13:58:04.713Z,101434.50
2023-11-15T14:00:53.349Z,101432.00
2023-11-15T14:03:39.705Z,101436.34
2023-11-15T14:06:25.718Z,101437.19
2023-11-15T14:09:13.880Z,101431.00
2023-11-15T14:12:01.049Z,101447.38
2023-11-15T14:14:46.940Z,101445.59
2023-11-15T14:17:33.054Z,101445.47
2023-11-15T14:20:19.484Z,101449.75
2023-11-15T14:23:06.090Z,101454.94
2023-11-15T14:25:51.469Z,101459.28
2023-11-15T14:28:37.112Z,101456.75
2023-11-15T14:31:22.699Z,101461.19
2023-11-15T14:34:08.778Z,101455.22
2023-11-15T14:36:55.988Z,101443.06
2023-11-15T14:39:41.434Z,101440.41
2023-11-15T14:42:26.865Z,101440.44
2023-11-15T14:45:13.746Z,101446.69
2023-11-15T14:48:00.681Z,101438.13
2023-11-15T14:50:47.069Z,101438.06
2023-11-15T14:53:41.166Z,101438.91
2023-11-15T14:56:28.748Z,101437.06
2023-11-15T14:59:14.110Z,101436.97
2023-11-15T15:01:59.614Z,101429.94
2023-11-15T15:04:47.330Z,101433.25
2023-11-15T15:07:34.620Z,101439.22
2023-11-15T15:10:20.788Z,101442.56
2023-11-15T15:13:10.772Z,101441.53
2023-11-15T15:15:56.623Z,101440.50
2023-11-15T15:18:42.251Z,101440.34
2023-11-15T15:21:28.210Z,101439.34
2023-11-15T15:24:14.096Z,101434.84
2023-11-15T15:27:01.165Z,101433.78
2023-11-15T15:29:49.774Z,101437.06
2023-11-15T15:32:36.148Z,101448.09
2023-11-15T15:35:21.504Z,101450.47
2023-11-15T15:38:09.690Z,101448.59
2023-11-15T15:40:57.939Z,101456.28
2023-11-15T15:43:45.904Z,101449.22
2023-11-15T15:46:34.321Z,101451.75
2023-11-15T15:49:20.088Z,101462.94
2023-11-15T15:52:05.735Z,101464.56
2023-11-15T15:54:51.705Z,101469.75
2023-11-15T15:57:38.005Z,101465.28
2023-11-15T16:00:25.215Z,101473.81
2023-11-15T16:03:11.135Z,101483.31
2023-11-15T16:05:57.279Z,101484.09
2023-11-15T16:08:42.626Z,101489.19
2023-11-15T16:11:28.131Z,101477.75
2023-11-15T16:14:13.528Z,101474.00
2023-11-15T16:16:59.056Z,101472.00
2023-11-15T16:19:44.695Z,101470.09
2023-11-15T16:22:30.629Z,101474.94
2023-11-15T16:25:16.450Z,101475.59
2023-11-15T16:28:01.883Z,101483.16
2023-11-15T16:30:47.360Z,101481.13
2023-11-15T16:33:33.425Z,101481.75
2023-11-15T16:36:19.270Z,101483.28
2023-11-15T16:39:11.699Z,101484.75
2023-11-15T16:41:57.765Z,101481.22
2023-11-15T16:44:45.020Z,101479.34
2023-11-15T16:47:30.482Z,101488.72
2023-11-15T16:50:16.018Z,101488.53
2023-11-15T16:53:02.258Z,101493.44
2023-11-15T16:55:48.299Z,101497.47
2023-11-15T16:58:34.129Z,101506.00
2023-11-15T17:01:19.700Z,101504.84
2023-11-15T17:04:08.384Z,101496.75
2023-11-15T17:06:56.281Z,101499.81
2023-11-15T17:09:42.179Z,101495.03
2023-11-15T17:12:28.014Z,101494.78
2023-11-15T17:15:13.821Z,101503.00
2023-11-15T17:17:59.484Z,101507.66
2023-11-15T17:20:46.056Z,101520.31
2023-11-15T17:23:32.295Z,101507.75
2023-11-15T17:26:18.576Z,101496.63
2023-11-15T17:29:04.071Z,101496.53
2023-11-15T17:31:49.582Z,101487.91
2023-11-15T17:34:35.068Z,101496.13
2023-11-15T17:37:21.204Z,101494.38
2023-11-15T17:40:07.470Z,101501.63
2023-11-15T17:42:52.870Z,101502.69
2023-11-15T17:45:38.430Z,101503.06
2023-11-15T17:48:23.872Z,101499.22
2023-11-15T17:51:09.334Z,101502.16
2023-11-15T17:53:55.401Z,101503.97
2023-11-15T17:56:41.222Z,101503.28
2023-11-15T17:59:27.636Z,101506.19
2023-11-15T18:02:13.426Z,101505.56
2023-11-15T18:04:59.624Z,101511.56
2023-11-15T18:07:49.867Z,101504.41
2023-11-15T18:10:35.701Z,101506.81
2023-11-15T18:13:21.214Z,101508.97
2023-11-15T18:16:07.237Z,101503.69
2023-11-15T18:18:55.931Z,101505.00
2023-11-15T18:21:41.676Z,101499.25
2023-11-15T18:24:27.539Z,101491.72
2023-11-15T18:27:12.969Z,101494.47
2023-11-15T18:30:01.316Z,101504.03
2023-11-15T18:32:48.316Z,101503.53
2023-11-15T18:35:33.979Z,101504.47
2023-11-15T18:38:19.830Z,101506.19
2023-11-15T18:41:05.885Z,101499.63
2023-11-15T18:43:52.455Z,101500.94
2023-11-15T18:46:40.610Z,101504.16
2023-11-15T18:49:26.007Z,101501.25
2023-11-15T18:52:11.317Z,101515.84
2023-11-15T18:54:57.691Z,101509.91
2023-11-15T18:57:44.980Z,101509.34
2023-11-15T19:00:30.722Z,101509.41
2023-11-15T19:03:16.548Z,101510.81
2023-11-15T19:06:02.415Z,101515.47
2023-11-15T19:08:47.835Z,101512.56
2023-11-15T19:11:33.432Z,101516.88
2023-11-15T19:14:19.523Z,101521.88
2023-11-15T19:17:07.560Z,101521.75
2023-11-15T19:19:53.255Z,101516.53
2023-11-15T19:22:38.919Z,101522.66
2023-11-15T19:25:27.023Z,101524.69
2023-11-15T19:28:16.229Z,101518.31
2023-11-15T19:31:01.985Z,101515.59
2023-11-15T19:33:47.665Z,101523.59
2023-11-15T19:36:33.558Z,101522.78
2023-11-15T19:39:19.010Z,101526.78
2023-11-15T19:42:06.079Z,101530.38
2023-11-15T19:44:51.980Z,101512.19
2023-11-15T19:47:37.769Z,101519.31
2023-11-15T19:50:23.659Z,101518.81
2023-11-15T19:53:09.117Z,101521.56
2023-11-15T19:55:55.719Z,101517.47
2023-11-15T19:58:41.562Z,101504.66
2023-11-15T20:01:27.354Z,101505.47
2023-11-15T20:04:12.948Z,101505.81
2023-11-15T20:07:02.185Z,101501.97
2023-11-15T20:09:48.240Z,101508.19
2023-11-15T20:12:34.087Z,101511.91
2023-11-15T20:15:19.710Z,101510.09
2023-11-15T20:18:05.326Z,101506.59
2023-11-15T20:20:50.794Z,101503.22
2023-11-15T20:23:38.224Z,101509.66
2023-11-15T20:26:23.823Z,101505.06
2023-11-15T20:29:11.533Z,101498.00
2023-11-15T20:31:57.883Z,101498.06
2023-11-15T20:34:43.421Z,101485.41
2023-11-15T20:37:29.061Z,101477.84
2023-11-15T20:40:16.422Z,101475.38
2023-11-15T20:43:02.418Z,101478.72
2023-11-15T20:46:00.314Z,101481.78
2023-11-15T20:48:54.693Z,101471.47
2023-11-15T20:51:48.252Z,101476.75
2023-11-15T20:54:34.221Z,101474.94
2023-11-15T20:57:20.764Z,101481.34
2023-11-15T21:00:26.643Z,101481.41
2023-11-15T21:03:14.131Z,101488.28
2023-11-15T21:06:01.378Z,101488.91
2023-11-15T21:08:50.165Z,101481.72
2023-11-15T21:11:35.605Z,101489.34
2023-11-15T21:14:21.482Z,101485.44
2023-11-15T21:17:07.434Z,101495.13
2023-11-15T21:19:53.357Z,101493.31
2023-11-15T21:22:46.218Z,101493.81
2023-11-15T21:25:32.267Z,101486.88
2023-11-15T21:28:18.018Z,101488.78
2023-11-15T21:31:04.829Z,101485.34
2023-11-15T21:33:50.738Z,101483.75
2023-11-15T21:36:38.224Z,101476.63
2023-11-15T21:39:23.862Z,101480.88
2023-11-15T21:42:09.450Z,101477.13
2023-11-15T21:44:55.018Z,101485.81
2023-11-15T21:47:42.855Z,101480.41
2023-11-15T21:50:28.667Z,101481.84
2023-11-15T21:53:14.434Z,101479.44
2023-11-15T21:56:02.963Z,101478.81
2023-11-15T21:58:48.901Z,101468.56
2023-11-15T22:01:34.407Z,101469.44
2023-11-15T22:04:19.875Z,101464.16
2023-11-15T22:07:05.443Z,101450.91
2023-11-15T22:09:50.948Z,101448.34
2023-11-15T22:12:37.331Z,101441.34
2023-11-15T22:15:24.533Z,101437.63
2023-11-15T22:18:10.332Z,101435.00
2023-11-15T22:20:56.448Z,101435.63
2023-11-15T22:23:42.210Z,101436.78
2023-11-15T22:26:27.695Z,101437.56
2023-11-15T22:29:13.234Z,101434.31
2023-11-15T22:31:59.159Z,101436.25
2023-11-15T22:34:44.784Z,101436.69
2023-11-15T22:37:30.426Z,101424.25
2023-11-15T22:40:15.949Z,101420.31
2023-11-15T22:43:04.788Z,101423.28
2023-11-15T22:45:51.400Z,101419.25
2023-11-15T22:48:37.609Z,101417.59
2023-11-15T22:51:23.130Z,101416.84
2023-11-15T22:54:08.692Z,101403.22
2023-11-15T22:56:54.554Z,101405.84
2023-11-15T22:59:40.136Z,101404.88
2023-11-15T23:02:25.967Z,101396.78
2023-11-15T23:05:12.313Z,101392.47
2023-11-15T23:07:57.790Z,101397.53
2023-11-15T23:10:46.133Z,101397.38
2023-11-15T23:13:32.443Z,101389.25
2023-11-15T23:16:17.826Z,101383.84
2023-11-15T23:19:03.625Z,101380.34
2023-11-15T23:21:58.842Z,101377.00
2023-11-15T23:24:48.576Z,101370.78
2023-11-15T23:27:37.224Z,101358.47
2023-11-15T23:30:25.024Z,101363.63
2023-11-15T23:33:10.762Z,101363.41
2023-11-15T23:35:56.315Z,101353.28
2023-11-15T23:38:41.785Z,101337.03
2023-11-15T23:41:29.643Z,101342.56
2023-11-15T23:44:15.256Z,101338.38
2023-11-15T23:47:00.694Z,101341.69
2023-11-15T23:49:46.181Z,101333.72
2023-11-15T23:52:33.830Z,101336.06
2023-11-15T23:55:20.573Z,101338.94
2023-11-15T23:58:08.726Z,101340.47
